createdAt,value
2018-10-19T00:01:57.498Z,13.20
2018-10-19T00:04:26.033Z,13.20
2018-10-19T00:06:54.517Z,13.20
2018-10-19T00:09:23.008Z,13.10
2018-10-19T00:11:51.466Z,13.10
2018-10-19T00:14:20.038Z,13.10
2018-10-19T00:16:48.560Z,13.10
2018-10-19T00:19:17.015Z,13.10
2018-10-19T00:21:45.497Z,13.00
2018-10-19T00:24:13.985Z,13.00
2018-10-19T00:26:42.485Z,13.00
2018-10-19T00:29:11.137Z,13.00
2018-10-19T00:31:39.513Z,13.00
2018-10-19T00:34:09.354Z,13.00
2018-10-19T00:36:37.899Z,13.00
2018-10-19T00:39:08.573Z,12.90
2018-10-19T00:41:37.073Z,12.90
2018-10-19T00:44:05.725Z,12.90
2018-10-19T00:46:34.248Z,12.80
2018-10-19T00:49:02.854Z,12.80
2018-10-19T00:51:31.389Z,12.90
2018-10-19T00:53:59.855Z,12.80
2018-10-19T00:56:28.333Z,12.80
2018-10-19T00:58:56.897Z,12.80
2018-10-19T01:01:25.385Z,12.80
2018-10-19T01:03:53.910Z,12.70
2018-10-19T01:06:22.364Z,12.70
2018-10-19T01:08:50.920Z,12.70
2018-10-19T01:11:19.399Z,12.70
2018-10-19T01:13:47.919Z,12.70
2018-10-19T01:16:16.422Z,12.70
2018-10-19T01:18:44.878Z,12.70
2018-10-19T01:21:13.569Z,12.60
2018-10-19T01:23:42.213Z,12.60
2018-10-19T01:26:10.841Z,12.60
2018-10-19T01:28:39.330Z,12.60
2018-10-19T01:31:07.795Z,12.60
2018-10-19T01:33:36.313Z,12.60
2018-10-19T01:36:06.261Z,12.60
2018-10-19T01:38:35.172Z,12.60
2018-10-19T01:41:03.722Z,12.60
2018-10-19T01:43:32.149Z,12.70
2018-10-19T01:46:00.641Z,12.70
2018-10-19T01:48:29.104Z,12.80
2018-10-19T01:50:58.262Z,12.80
2018-10-19T01:53:26.801Z,12.90
2018-10-19T01:55:55.275Z,12.90
2018-10-19T01:58:23.787Z,12.90
2018-10-19T02:00:52.248Z,12.90
2018-10-19T02:03:20.850Z,12.90
2018-10-19T02:05:49.296Z,12.80
2018-10-19T02:08:18.767Z,12.80
2018-10-19T02:10:47.185Z,12.80
2018-10-19T02:13:15.676Z,12.80
2018-10-19T02:15:44.148Z,12.70
2018-10-19T02:18:12.634Z,12.70
2018-10-19T02:20:41.128Z,12.70
2018-10-19T02:23:09.619Z,12.70
2018-10-19T02:25:38.083Z,12.70
2018-10-19T02:28:06.571Z,12.80
2018-10-19T02:30:35.063Z,12.80
2018-10-19T02:33:03.607Z,12.90
2018-10-19T02:35:32.021Z,12.90
2018-10-19T02:38:00.487Z,12.90
2018-10-19T02:40:28.984Z,12.90
2018-10-19T02:42:57.469Z,12.90
2018-10-19T02:45:25.931Z,12.90
2018-10-19T02:47:54.420Z,12.90
2018-10-19T02:50:22.904Z,12.80
2018-10-19T02:52:51.385Z,12.90
2018-10-19T02:55:20.016Z,12.90
2018-10-19T02:57:48.471Z,12.90
2018-10-19T03:00:16.942Z,12.90
2018-10-19T03:02:45.409Z,12.90
2018-10-19T03:05:13.961Z,12.90
2018-10-19T03:07:42.382Z,12.90
2018-10-19T03:10:10.865Z,12.90
2018-10-19T03:12:39.335Z,12.90
2018-10-19T03:15:08.305Z,12.80
2018-10-19T03:17:36.710Z,12.80
2018-10-19T03:20:06.858Z,12.80
2018-10-19T03:22:35.631Z,12.80
2018-10-19T03:25:04.167Z,12.70
2018-10-19T03:34:32.251Z,12.70
2018-10-19T03:37:00.709Z,12.60
2018-10-19T03:39:29.222Z,12.60
2018-10-19T03:41:57.665Z,12.50
2018-10-19T03:44:26.753Z,12.50
2018-10-19T03:46:55.604Z,12.50
2018-10-19T03:49:24.054Z,12.50
2018-10-19T03:51:52.521Z,12.50
2018-10-19T03:54:21.057Z,12.40
2018-10-19T03:56:49.479Z,12.40
2018-10-19T03:59:18.046Z,12.40
2018-10-19T04:01:46.532Z,12.40
2018-10-19T04:04:15.158Z,12.40
2018-10-19T04:06:43.728Z,12.40
2018-10-19T04:09:13.513Z,12.40
2018-10-19T04:11:42.249Z,12.40
2018-10-19T04:14:11.925Z,12.30
2018-10-19T04:16:40.625Z,12.30
2018-10-19T04:19:09.811Z,12.30
2018-10-19T04:21:38.524Z,12.20
2018-10-19T04:24:07.386Z,12.20
2018-10-19T04:26:35.957Z,12.20
2018-10-19T04:29:04.885Z,12.20
2018-10-19T04:31:33.414Z,12.20
2018-10-19T04:34:02.157Z,12.20
2018-10-19T04:36:30.619Z,12.10
2018-10-19T04:38:59.194Z,12.10
2018-10-19T04:41:28.825Z,12.10
2018-10-19T04:43:57.296Z,12.10
2018-10-19T04:46:26.229Z,12.10
2018-10-19T04:48:54.666Z,12.10
2018-10-19T04:51:23.181Z,12.10
2018-10-19T04:53:51.739Z,12.00
2018-10-19T04:56:20.100Z,12.10
2018-10-19T04:58:48.606Z,12.10
2018-10-19T05:01:17.061Z,12.00
2018-10-19T05:03:45.616Z,12.00
2018-10-19T05:06:14.332Z,12.10
2018-10-19T05:08:42.738Z,12.00
2018-10-19T05:11:11.222Z,12.00
2018-10-19T05:13:39.710Z,12.00
2018-10-19T05:16:08.198Z,12.00
2018-10-19T05:18:36.653Z,12.00
2018-10-19T05:21:05.202Z,12.00
2018-10-19T05:23:33.700Z,12.00
2018-10-19T05:26:02.282Z,11.90
2018-10-19T05:28:30.680Z,11.90
2018-10-19T05:30:59.168Z,11.90
2018-10-19T05:33:27.634Z,11.80
2018-10-19T05:35:56.153Z,11.80
2018-10-19T05:38:24.611Z,11.80
2018-10-19T05:40:53.187Z,11.70
2018-10-19T05:43:21.751Z,11.70
2018-10-19T05:45:50.228Z,11.60
2018-10-19T05:48:18.754Z,11.60
2018-10-19T05:50:47.215Z,11.60
2018-10-19T05:53:15.846Z,11.60
2018-10-19T05:55:44.483Z,11.60
2018-10-19T05:58:13.000Z,11.50
2018-10-19T06:00:41.483Z,11.50
2018-10-19T06:03:09.983Z,11.50
2018-10-19T06:05:38.430Z,11.50
2018-10-19T06:08:06.985Z,11.50
2018-10-19T06:10:35.386Z,11.50
2018-10-19T06:13:03.898Z,11.50
2018-10-19T06:15:32.383Z,11.50
2018-10-19T06:18:00.850Z,11.50
2018-10-19T06:20:29.304Z,11.50
2018-10-19T06:22:57.822Z,11.50
2018-10-19T06:25:26.270Z,11.40
2018-10-19T06:27:54.766Z,11.40
2018-10-19T06:30:23.225Z,11.40
2018-10-19T06:32:51.725Z,11.40
2018-10-19T06:35:20.266Z,11.30
2018-10-19T06:37:48.788Z,11.30
2018-10-19T06:40:17.268Z,11.20
2018-10-19T06:42:45.773Z,11.30
2018-10-19T06:45:14.221Z,11.20
2018-10-19T06:47:42.775Z,11.30
2018-10-19T06:50:12.351Z,11.30
2018-10-19T06:52:41.479Z,11.30
2018-10-19T06:55:13.677Z,11.30
2018-10-19T06:57:42.222Z,11.30
2018-10-19T07:00:10.918Z,11.30
2018-10-19T07:02:39.441Z,11.30
2018-10-19T07:05:07.993Z,11.30
2018-10-19T07:07:36.819Z,11.40
2018-10-19T07:10:06.747Z,11.50
2018-10-19T07:12:35.274Z,11.50
2018-10-19T07:15:04.020Z,11.60
2018-10-19T07:17:32.508Z,11.60
2018-10-19T07:20:01.011Z,11.60
2018-10-19T07:22:29.429Z,11.70
2018-10-19T07:24:57.927Z,11.70
2018-10-19T07:27:26.562Z,11.70
2018-10-19T07:29:55.001Z,11.80
2018-10-19T07:32:23.477Z,11.80
2018-10-19T07:34:52.168Z,11.90
2018-10-19T07:37:20.663Z,11.90
2018-10-19T07:39:49.121Z,12.00
2018-10-19T07:42:17.648Z,12.10
2018-10-19T07:44:46.133Z,12.20
2018-10-19T07:47:14.718Z,12.20
2018-10-19T07:49:43.158Z,12.20
2018-10-19T07:52:11.633Z,12.30
2018-10-19T07:54:40.228Z,12.30
2018-10-19T07:57:08.724Z,12.40
2018-10-19T08:00:40.686Z,12.40
2018-10-19T08:03:09.220Z,12.50
2018-10-19T08:05:37.826Z,12.60
2018-10-19T08:08:06.902Z,12.70
2018-10-19T08:10:35.316Z,12.70
2018-10-19T08:13:03.826Z,12.80
2018-10-19T08:15:32.312Z,12.90
2018-10-19T08:18:00.757Z,12.90
2018-10-19T08:20:29.261Z,13.00
2018-10-19T08:22:57.713Z,13.00
2018-10-19T08:25:26.222Z,13.10
2018-10-19T08:27:54.681Z,13.20
2018-10-19T08:30:23.179Z,13.30
2018-10-19T08:32:51.644Z,13.40
2018-10-19T08:35:20.169Z,13.60
2018-10-19T08:37:48.634Z,13.70
2018-10-19T08:40:17.143Z,13.80
2018-10-19T08:42:45.624Z,13.80
2018-10-19T08:45:14.106Z,13.90
2018-10-19T08:47:42.616Z,13.90
2018-10-19T08:50:11.021Z,13.80
2018-10-19T08:52:39.660Z,13.80
2018-10-19T08:55:08.356Z,13.90
2018-10-19T08:57:36.793Z,14.00
2018-10-19T09:00:06.571Z,14.10
2018-10-19T09:02:35.089Z,14.00
2018-10-19T09:05:03.660Z,13.90
2018-10-19T09:07:32.241Z,13.90
2018-10-19T09:10:00.736Z,14.00
2018-10-19T09:12:29.276Z,14.00
2018-10-19T09:14:59.158Z,14.10
2018-10-19T09:17:27.612Z,14.10
2018-10-19T09:19:56.142Z,14.20
2018-10-19T09:22:24.669Z,14.20
2018-10-19T09:24:53.514Z,14.30
2018-10-19T09:27:22.047Z,14.30
2018-10-19T09:29:50.529Z,14.40
2018-10-19T09:32:18.992Z,14.50
2018-10-19T09:34:47.504Z,14.50
2018-10-19T09:37:15.978Z,14.50
2018-10-19T09:41:13.698Z,14.50
2018-10-19T09:43:42.208Z,14.50
2018-10-19T09:46:10.733Z,14.70
2018-10-19T09:48:39.173Z,14.70
2018-10-19T09:51:07.720Z,14.70
2018-10-19T09:53:36.312Z,14.80
2018-10-19T09:56:05.085Z,14.80
2018-10-19T09:58:33.537Z,14.90
2018-10-19T10:01:02.174Z,15.00
2018-10-19T10:03:30.721Z,15.00
2018-10-19T10:05:59.269Z,15.10
2018-10-19T10:08:27.752Z,15.20
2018-10-19T10:10:56.238Z,15.20
2018-10-19T10:13:24.762Z,15.30
2018-10-19T10:15:53.283Z,15.30
2018-10-19T10:18:21.829Z,15.30
2018-10-19T10:20:50.380Z,15.30
2018-10-19T10:23:18.841Z,15.20
2018-10-19T10:25:47.373Z,15.10
2018-10-19T10:28:15.871Z,15.10
2018-10-19T10:30:44.319Z,15.00
2018-10-19T10:33:12.897Z,14.90
2018-10-19T10:35:41.373Z,15.10
2018-10-19T10:38:09.839Z,15.30
2018-10-19T10:40:38.311Z,15.40
2018-10-19T10:43:06.862Z,15.50
2018-10-19T10:45:35.277Z,15.40
2018-10-19T10:48:03.934Z,15.60
2018-10-19T10:50:32.440Z,15.50
2018-10-19T10:53:00.928Z,15.50
2018-10-19T10:55:29.417Z,15.60
2018-10-19T10:57:57.912Z,15.70
2018-10-19T11:00:26.476Z,15.80
2018-10-19T11:02:54.959Z,15.80
2018-10-19T11:05:23.465Z,15.90
2018-10-19T11:07:51.910Z,16.00
2018-10-19T11:10:20.353Z,16.10
2018-10-19T11:12:49.300Z,16.10
2018-10-19T11:15:17.851Z,16.20
2018-10-19T11:17:46.399Z,16.20
2018-10-19T11:20:14.945Z,16.30
2018-10-19T11:22:43.440Z,16.40
2018-10-19T11:25:12.016Z,16.60
2018-10-19T11:27:40.499Z,16.70
2018-10-19T11:30:09.566Z,16.70
2018-10-19T11:32:38.112Z,16.80
2018-10-19T11:35:07.380Z,16.80
2018-10-19T11:37:35.921Z,16.70
2018-10-19T11:40:27.486Z,16.70
2018-10-19T11:42:56.746Z,16.70
2018-10-19T11:45:26.627Z,16.80
2018-10-19T11:47:55.144Z,17.00
2018-10-19T11:50:23.756Z,17.10
2018-10-19T11:52:52.260Z,17.20
2018-10-19T11:55:20.799Z,17.40
2018-10-19T11:57:50.050Z,17.60
2018-10-19T12:00:18.557Z,17.70
2018-10-19T12:02:46.983Z,17.80
2018-10-19T12:05:15.530Z,17.70
2018-10-19T12:07:43.997Z,17.70
2018-10-19T12:10:13.481Z,17.60
2018-10-19T12:12:42.564Z,17.70
2018-10-19T12:15:12.952Z,17.90
2018-10-19T12:17:42.183Z,17.80
2018-10-19T12:20:12.748Z,17.90
2018-10-19T12:22:41.231Z,18.20
2018-10-19T12:25:10.561Z,18.40
2018-10-19T12:27:39.340Z,18.40
2018-10-19T12:30:08.666Z,18.40
2018-10-19T12:32:37.389Z,18.50
2018-10-19T12:35:07.298Z,18.70
2018-10-19T12:37:35.800Z,18.90
2018-10-19T12:40:04.364Z,18.80
2018-10-19T12:42:32.944Z,18.90
2018-10-19T12:45:01.416Z,18.80
2018-10-19T12:47:39.759Z,18.90
2018-10-19T12:50:08.525Z,19.20
2018-10-19T12:52:37.212Z,19.20
2018-10-19T12:55:07.432Z,19.40
2018-10-19T12:57:36.010Z,19.50
2018-10-19T13:00:05.352Z,19.40
2018-10-19T13:02:33.837Z,19.30
2018-10-19T13:05:02.297Z,19.30
2018-10-19T13:07:30.765Z,19.30
2018-10-19T13:09:59.256Z,19.40
2018-10-19T13:12:27.742Z,19.50
2018-10-19T13:14:56.290Z,19.60
2018-10-19T13:17:24.825Z,19.70
2018-10-19T13:19:53.339Z,19.90
2018-10-19T13:22:21.848Z,19.90
2018-10-19T13:24:50.461Z,20.20
2018-10-19T13:27:18.953Z,20.50
2018-10-19T13:29:47.472Z,20.80
2018-10-19T13:32:16.025Z,21.00
2018-10-19T13:34:44.445Z,21.10
2018-10-19T13:37:12.985Z,21.20
2018-10-19T13:39:41.482Z,21.50
2018-10-19T13:42:10.138Z,21.70
2018-10-19T13:44:38.724Z,21.90
2018-10-19T13:47:07.273Z,22.00
2018-10-19T13:49:35.692Z,22.30
2018-10-19T13:52:04.143Z,22.60
2018-10-19T13:54:32.672Z,22.90
2018-10-19T13:57:01.178Z,23.10
2018-10-19T13:59:29.590Z,23.00
2018-10-19T14:01:58.101Z,23.00
2018-10-19T14:04:26.702Z,22.70
2018-10-19T14:06:55.176Z,22.60
2018-10-19T14:09:23.609Z,22.50
2018-10-19T14:11:52.161Z,22.60
2018-10-19T14:14:20.754Z,22.70
2018-10-19T14:16:49.297Z,22.60
2018-10-19T14:19:17.897Z,22.50
2018-10-19T14:21:46.425Z,22.00
2018-10-19T14:24:15.374Z,21.40
2018-10-19T14:26:44.316Z,20.80
2018-10-19T14:29:12.962Z,20.40
2018-10-19T14:31:41.477Z,20.00
2018-10-19T14:34:10.000Z,19.70
2018-10-19T14:36:38.489Z,19.40
2018-10-19T14:39:07.061Z,19.20
2018-10-19T14:41:36.352Z,19.00
2018-10-19T14:44:04.928Z,18.90
2018-10-19T14:46:33.514Z,18.80
2018-10-19T14:49:02.035Z,18.70
2018-10-19T14:51:31.508Z,18.60
2018-10-19T14:54:00.096Z,18.60
2018-10-19T14:56:28.609Z,18.50
2018-10-19T14:58:57.152Z,18.40
2018-10-19T15:01:25.670Z,18.30
2018-10-19T15:03:54.153Z,18.30
2018-10-19T15:06:22.604Z,18.20
2018-10-19T15:08:51.102Z,18.30
2018-10-19T15:11:19.793Z,18.20
2018-10-19T15:13:48.074Z,18.20
2018-10-19T15:16:16.557Z,18.20
2018-10-19T15:18:45.096Z,18.10
2018-10-19T15:21:13.789Z,18.10
2018-10-19T15:23:42.221Z,18.00
2018-10-19T15:26:10.796Z,17.90
2018-10-19T15:28:39.352Z,17.80
2018-10-19T15:31:07.838Z,17.60
2018-10-19T15:33:36.345Z,17.60
2018-10-19T15:36:05.448Z,17.60
2018-10-19T15:38:33.928Z,17.50
2018-10-19T15:41:02.555Z,17.50
2018-10-19T15:43:31.053Z,17.50
2018-10-19T15:45:59.618Z,17.40
2018-10-19T15:48:28.171Z,17.40
2018-10-19T15:50:56.638Z,17.20
2018-10-19T15:53:25.077Z,17.20
2018-10-19T15:55:53.656Z,17.10
2018-10-19T15:58:22.176Z,17.10
2018-10-19T16:00:50.685Z,17.00
2018-10-19T16:03:19.133Z,17.00
2018-10-19T16:05:47.624Z,16.90
2018-10-19T16:08:16.392Z,16.90
2018-10-19T16:10:44.945Z,16.80
2018-10-19T16:13:13.519Z,16.80
2018-10-19T16:15:42.398Z,16.80
2018-10-19T16:18:11.037Z,16.80
2018-10-19T16:20:39.659Z,16.80
2018-10-19T16:23:08.184Z,16.70
2018-10-19T16:25:36.849Z,16.70
2018-10-19T16:28:05.753Z,16.70
2018-10-19T16:30:34.321Z,16.70
2018-10-19T16:33:02.874Z,16.70
2018-10-19T16:35:31.348Z,16.70
2018-10-19T16:37:59.886Z,16.70
2018-10-19T16:40:28.432Z,16.70
2018-10-19T16:42:57.236Z,16.70
2018-10-19T16:45:25.789Z,16.70
2018-10-19T16:47:54.975Z,16.70
2018-10-19T16:50:23.474Z,16.60
2018-10-19T16:52:52.004Z,16.60
2018-10-19T16:55:20.409Z,16.60
2018-10-19T16:57:48.912Z,16.50
2018-10-19T17:00:17.493Z,16.40
2018-10-19T17:02:46.023Z,16.50
2018-10-19T17:05:14.544Z,16.50
2018-10-19T17:07:43.029Z,16.40
2018-10-19T17:10:12.358Z,16.40
2018-10-19T17:12:40.954Z,16.40
2018-10-19T17:15:10.195Z,16.40
2018-10-19T17:17:39.448Z,16.30
2018-10-19T17:20:08.424Z,16.30
2018-10-19T17:22:37.410Z,16.30
2018-10-19T17:25:08.001Z,16.20
2018-10-19T17:27:36.612Z,16.20
2018-10-19T17:30:07.192Z,16.20
2018-10-19T17:32:35.855Z,16.20
2018-10-19T17:35:05.547Z,16.10
2018-10-19T17:37:34.187Z,16.10
2018-10-19T17:40:03.054Z,16.00
2018-10-19T17:42:31.633Z,16.00
2018-10-19T17:45:00.202Z,16.00
2018-10-19T17:47:28.792Z,15.90
2018-10-19T17:49:57.326Z,15.90
2018-10-19T17:52:26.104Z,15.90
2018-10-19T17:54:55.051Z,15.90
2018-10-19T17:57:23.620Z,15.80
2018-10-19T17:59:52.783Z,15.80
2018-10-19T18:02:21.416Z,15.70
2018-10-19T18:04:50.051Z,15.70
2018-10-19T18:07:18.601Z,15.70
2018-10-19T18:09:47.095Z,15.70
2018-10-19T18:12:15.623Z,15.70
2018-10-19T18:14:44.125Z,15.60
2018-10-19T18:17:12.626Z,15.60
2018-10-19T18:19:41.096Z,15.60
2018-10-19T18:22:09.985Z,15.60
2018-10-19T18:24:38.058Z,15.60
2018-10-19T18:27:06.651Z,15.60
2018-10-19T18:29:35.092Z,15.60
2018-10-19T18:32:03.676Z,15.60
2018-10-19T18:34:32.252Z,15.60
2018-10-19T18:37:00.748Z,15.60
2018-10-19T18:39:29.236Z,15.60
2018-10-19T18:41:57.705Z,15.60
2018-10-19T18:44:26.198Z,15.60
2018-10-19T18:46:54.858Z,15.60
2018-10-19T18:49:23.431Z,15.60
2018-10-19T18:51:52.122Z,15.60
2018-10-19T18:54:20.626Z,15.60
2018-10-19T18:56:49.109Z,15.60
2018-10-19T18:59:17.618Z,15.60
2018-10-19T19:01:46.148Z,15.60
2018-10-19T19:04:14.693Z,15.60
2018-10-19T19:06:43.194Z,15.50
2018-10-19T19:09:15.070Z,15.50
2018-10-19T19:11:43.769Z,15.50
2018-10-19T19:14:12.422Z,15.50
2018-10-19T19:16:40.927Z,15.50
2018-10-19T19:19:09.358Z,15.50
2018-10-19T19:21:37.978Z,15.50
2018-10-19T19:24:11.751Z,15.50
2018-10-19T19:26:40.319Z,15.40
2018-10-19T19:29:08.920Z,15.40
2018-10-19T19:31:37.376Z,15.30
2018-10-19T19:34:11.209Z,15.30
2018-10-19T19:36:39.704Z,15.30
2018-10-19T19:39:09.108Z,15.30
2018-10-19T19:41:42.850Z,15.30
2018-10-19T19:44:11.470Z,15.30
2018-10-19T19:46:40.022Z,15.20
2018-10-19T19:49:13.789Z,15.20
2018-10-19T19:51:42.351Z,15.20
2018-10-19T19:54:10.928Z,15.20
2018-10-19T19:56:39.445Z,15.20
2018-10-19T19:59:08.008Z,15.20
2018-10-19T20:01:36.480Z,15.20
2018-10-19T20:04:05.369Z,15.20
2018-10-19T20:06:33.847Z,15.10
2018-10-19T20:09:02.383Z,15.10
2018-10-19T20:11:30.979Z,15.10
2018-10-19T20:13:59.619Z,15.10
2018-10-19T20:16:28.108Z,15.10
2018-10-19T20:18:57.391Z,15.10
2018-10-19T20:21:25.901Z,15.10
2018-10-19T20:23:54.361Z,15.10
2018-10-19T20:26:22.916Z,15.10
2018-10-19T20:28:51.445Z,15.00
2018-10-19T20:31:19.938Z,15.00
2018-10-19T20:33:48.392Z,14.90
2018-10-19T20:36:16.902Z,14.90
2018-10-19T20:38:45.335Z,14.80
2018-10-19T20:41:13.879Z,14.80
2018-10-19T20:43:42.368Z,14.70
2018-10-19T20:46:11.073Z,14.70
2018-10-19T20:48:39.749Z,14.60
2018-10-19T20:51:08.236Z,14.60
2018-10-19T20:53:36.742Z,14.60
2018-10-19T20:56:05.313Z,14.60
2018-10-19T20:58:33.940Z,14.50
2018-10-19T21:01:02.452Z,14.50
2018-10-19T21:03:31.039Z,14.40
2018-10-19T21:05:59.585Z,14.30
2018-10-19T21:08:28.101Z,14.30
2018-10-19T21:10:56.738Z,14.20
2018-10-19T21:13:25.263Z,14.20
2018-10-19T21:15:53.721Z,14.10
2018-10-19T21:18:22.268Z,14.10
2018-10-19T21:20:50.854Z,14.00
2018-10-19T21:23:19.339Z,13.90
2018-10-19T21:25:47.841Z,13.90
2018-10-19T21:28:16.372Z,13.80
2018-10-19T21:30:44.936Z,13.80
2018-10-19T21:33:13.376Z,13.70
2018-10-19T21:35:41.885Z,13.70
2018-10-19T21:38:10.374Z,13.60
2018-10-19T21:40:38.820Z,13.60
2018-10-19T21:43:07.420Z,13.50
2018-10-19T21:45:35.882Z,13.50
2018-10-19T21:48:04.632Z,13.40
2018-10-19T21:50:33.185Z,13.40
2018-10-19T21:53:01.665Z,13.40
2018-10-19T21:55:30.298Z,13.40
2018-10-19T21:57:58.778Z,13.40
2018-10-19T22:00:27.329Z,13.30
2018-10-19T22:02:55.757Z,13.20
2018-10-19T22:05:24.262Z,13.10
2018-10-19T22:07:52.746Z,13.20
2018-10-19T22:10:21.197Z,13.20
2018-10-19T22:12:49.685Z,13.10
2018-10-19T22:15:18.209Z,13.10
2018-10-19T22:17:46.632Z,13.00
2018-10-19T22:20:15.164Z,13.00
2018-10-19T22:22:43.630Z,13.00
2018-10-19T22:25:12.171Z,12.90
2018-10-19T22:27:40.764Z,12.80
2018-10-19T22:30:09.337Z,12.80
2018-10-19T22:32:38.327Z,12.80
2018-10-19T22:35:06.943Z,12.80
2018-10-19T22:37:35.401Z,12.70
2018-10-19T22:40:04.002Z,12.70
2018-10-19T22:42:32.521Z,12.60
2018-10-19T22:45:00.956Z,12.60
2018-10-19T22:47:29.514Z,12.50
2018-10-19T22:49:58.059Z,12.50
2018-10-19T22:52:26.496Z,12.40
2018-10-19T22:54:54.999Z,12.40
2018-10-19T22:57:23.515Z,12.30
2018-10-19T22:59:52.240Z,12.30
2018-10-19T23:02:20.861Z,12.20
2018-10-19T23:04:49.373Z,12.20
2018-10-19T23:07:17.938Z,12.20
2018-10-19T23:09:46.548Z,12.10
2018-10-19T23:12:14.989Z,12.10
2018-10-19T23:14:43.497Z,12.10
2018-10-19T23:17:12.047Z,12.00
2018-10-19T23:19:40.516Z,11.90
2018-10-19T23:22:09.007Z,11.90
2018-10-19T23:24:37.549Z,11.80
2018-10-19T23:27:06.193Z,11.80
2018-10-19T23:29:34.704Z,11.80
2018-10-19T23:32:03.206Z,11.80
2018-10-19T23:34:31.733Z,11.70
2018-10-19T23:37:00.254Z,11.70
2018-10-19T23:39:28.706Z,11.70
2018-10-19T23:41:57.213Z,11.60
2018-10-19T23:44:25.675Z,11.50
2018-10-19T23:46:54.155Z,11.50
2018-10-19T23:49:22.621Z,11.50
2018-10-19T23:51:51.142Z,11.40
2018-10-19T23:54:19.600Z,11.40
2018-10-19T23:56:48.157Z,11.30
2018-10-19T23:59:17.736Z,11.30
